createdAt,value
2023-02-03T00:10:58.704Z,94.2
2023-02-03T00:22:58.685Z,94.2
2023-02-03T00:34:58.823Z,94.0
2023-02-03T00:46:58.647Z,93.7
2023-02-03T00:58:58.720Z,93.7
2023-02-03T01:10:58.710Z,94.4
2023-02-03T01:22:58.628Z,95.2
2023-02-03T01:34:58.851Z,94.9
2023-02-03T01:46:58.630Z,94.0
2023-02-03T01:58:58.619Z,93.8
2023-02-03T02:10:58.695Z,93.7
2023-02-03T02:22:58.701Z,93.0
2023-02-03T02:34:58.702Z,92.8
2023-02-03T02:46:58.677Z,92.1
2023-02-03T02:58:58.645Z,91.6
2023-02-03T03:10:58.728Z,90.6
2023-02-03T03:22:58.748Z,85.6
2023-02-03T03:34:58.614Z,87.4
2023-02-03T03:46:58.625Z,89.4
2023-02-03T03:58:58.738Z,89.9
2023-02-03T04:10:58.673Z,90.6
2023-02-03T04:22:58.618Z,91.1
2023-02-03T04:34:58.709Z,90.9
2023-02-03T04:46:58.654Z,89.9
2023-02-03T04:58:58.624Z,88.7
2023-02-03T05:11:00.667Z,87.3
2023-02-03T05:22:58.625Z,86.3
2023-02-03T05:34:58.614Z,86.0
2023-02-03T05:46:58.730Z,85.6
2023-02-03T05:58:58.720Z,85.0
2023-02-03T06:10:58.617Z,84.9
2023-02-03T06:22:58.618Z,84.3
2023-02-03T06:34:58.726Z,83.6
2023-02-03T06:46:58.625Z,83.1
2023-02-03T06:58:58.703Z,81.8
2023-02-03T07:10:58.622Z,81.3
2023-02-03T07:22:58.747Z,80.3
2023-02-03T07:34:58.730Z,79.3
2023-02-03T07:46:58.631Z,77.3
2023-02-03T07:58:58.622Z,76.3
2023-02-03T08:10:58.617Z,75.7
2023-02-03T08:22:58.733Z,76.2
2023-02-03T08:34:58.679Z,76.0
2023-02-03T08:46:58.622Z,76.7
2023-02-03T08:58:58.615Z,77.3
2023-02-03T09:10:58.766Z,77.2
2023-02-03T09:22:58.702Z,77.9
2023-02-03T09:34:58.752Z,76.9
2023-02-03T09:46:58.734Z,78.5
2023-02-03T09:58:58.724Z,81.5
2023-02-03T10:10:58.738Z,85.2
2023-02-03T10:22:58.623Z,90.4
2023-02-03T10:34:58.637Z,93.0
2023-02-03T10:46:58.721Z,94.4
2023-02-03T10:58:58.734Z,95.2
2023-02-03T11:10:58.628Z,95.5
2023-02-03T11:22:58.614Z,95.7
2023-02-03T11:34:58.638Z,96.1
2023-02-03T11:46:58.619Z,96.1
2023-02-03T11:58:58.709Z,94.6
2023-02-03T12:10:58.744Z,94.3
2023-02-03T12:22:58.683Z,92.6
2023-02-03T12:34:58.620Z,91.1
2023-02-03T12:46:58.733Z,88.7
2023-02-03T12:58:58.739Z,90.9
2023-02-03T13:10:58.746Z,91.2
2023-02-03T13:22:58.618Z,90.4
2023-02-03T13:34:58.710Z,91.1
2023-02-03T13:46:58.628Z,91.3
2023-02-03T13:58:58.806Z,90.4
2023-02-03T14:10:58.687Z,90.3
2023-02-03T14:22:58.681Z,90.2
2023-02-03T14:34:58.618Z,91.5
2023-02-03T14:46:58.623Z,92.3
2023-02-03T14:58:58.626Z,92.9
2023-02-03T15:10:58.641Z,92.4
2023-02-03T15:22:58.743Z,92.4
2023-02-03T15:34:58.713Z,92.5
2023-02-03T15:46:58.822Z,93.1
2023-02-03T15:58:58.647Z,93.7
2023-02-03T16:10:58.732Z,93.3
2023-02-03T16:22:58.700Z,92.1
2023-02-03T16:34:58.691Z,90.5
2023-02-03T16:46:58.636Z,89.7
2023-02-03T16:58:58.619Z,88.9
2023-02-03T17:10:58.726Z,89.5
2023-02-03T17:22:58.702Z,90.7
2023-02-03T17:34:58.628Z,92.8
2023-02-03T17:58:58.715Z,93.6
2023-02-03T18:10:58.665Z,89.3
2023-02-03T18:22:58.725Z,87.8
2023-02-03T18:35:00.010Z,85.1
2023-02-03T18:46:58.598Z,85.7
2023-02-03T18:58:58.673Z,85.1
2023-02-03T19:10:58.591Z,85.8
2023-02-03T19:22:58.717Z,86.0
2023-02-03T19:34:58.622Z,83.6
2023-02-03T19:46:58.736Z,82.4
2023-02-03T19:58:58.701Z,81.3
2023-02-03T20:10:58.637Z,83.1
2023-02-03T20:22:58.706Z,83.1
2023-02-03T20:34:58.725Z,84.2
2023-02-03T20:46:58.772Z,83.4
2023-02-03T20:58:58.731Z,81.7
2023-02-03T21:10:58.630Z,81.0
2023-02-03T21:22:58.738Z,80.3
2023-02-03T21:34:58.734Z,81.0
2023-02-03T21:46:58.630Z,81.7
2023-02-03T21:58:58.746Z,80.8
2023-02-03T22:10:58.619Z,79.5
2023-02-03T22:22:58.714Z,80.0
2023-02-03T22:34:58.743Z,79.2
2023-02-03T22:46:58.625Z,77.9
2023-02-03T22:58:59.620Z,77.9
2023-02-03T23:10:58.762Z,77.0
2023-02-03T23:22:58.618Z,77.3
2023-02-03T23:34:58.723Z,77.7
2023-02-03T23:46:58.622Z,78.4
2023-02-03T23:58:58.701Z,79.4
